createdAt,value
2022-11-19T00:02:03.866Z,100850.91
2022-11-19T00:04:09.623Z,100854.41
2022-11-19T00:06:17.908Z,100850.91
2022-11-19T00:08:25.124Z,100849.19
2022-11-19T00:10:32.711Z,100849.19
2022-11-19T00:12:56.064Z,100852.75
2022-11-19T00:15:05.804Z,100851.03
2022-11-19T00:17:12.377Z,100851.16
2022-11-19T00:19:18.860Z,100850.41
2022-11-19T00:21:23.525Z,100852.22
2022-11-19T00:23:28.781Z,100850.59
2022-11-19T00:25:33.500Z,100850.72
2022-11-19T00:27:39.384Z,100854.31
2022-11-19T00:29:45.798Z,100859.75
2022-11-19T00:31:50.118Z,100858.09
2022-11-19T00:33:55.624Z,100858.16
2022-11-19T00:36:00.522Z,100853.81
2022-11-19T00:38:05.129Z,100857.41
2022-11-19T00:40:12.189Z,100854.06
2022-11-19T00:42:16.587Z,100855.09
2022-11-19T00:44:21.759Z,100863.94
2022-11-19T00:46:27.882Z,100868.44
2022-11-19T00:48:32.052Z,100877.28
2022-11-19T00:50:36.804Z,100878.25
2022-11-19T00:52:41.400Z,100873.13
2022-11-19T00:54:45.576Z,100874.97
2022-11-19T00:56:50.170Z,100867.09
2022-11-19T00:58:54.768Z,100884.53
2022-11-19T01:01:00.585Z,100884.53
2022-11-19T01:03:05.049Z,100883.63
2022-11-19T01:05:10.284Z,100889.75
2022-11-19T01:07:14.717Z,100899.22
2022-11-19T01:09:19.168Z,100894.88
2022-11-19T01:11:26.093Z,100899.22
2022-11-19T01:13:35.347Z,100900.97
2022-11-19T01:15:39.812Z,100893.97
2022-11-19T01:17:45.668Z,100892.19
2022-11-19T01:19:49.706Z,100888.66
2022-11-19T01:21:54.058Z,100893.03
2022-11-19T01:23:59.006Z,100885.22
2022-11-19T01:26:04.011Z,100884.38
2022-11-19T01:28:08.411Z,100882.66
2022-11-19T01:30:13.808Z,100884.44
2022-11-19T01:32:18.329Z,100887.06
2022-11-19T01:34:24.644Z,100893.16
2022-11-19T01:36:31.766Z,100892.38
2022-11-19T01:38:36.543Z,100892.31
2022-11-19T01:40:45.844Z,100893.16
2022-11-19T01:42:54.202Z,100897.56
2022-11-19T01:45:04.003Z,100889.75
2022-11-19T01:47:08.025Z,100887.16
2022-11-19T01:49:16.405Z,100892.53
2022-11-19T01:51:26.474Z,100897.78
2022-11-19T01:53:33.503Z,100898.75
2022-11-19T01:55:38.627Z,100893.69
2022-11-19T01:57:43.543Z,100893.81
2022-11-19T01:59:52.270Z,100887.75
2022-11-19T02:01:57.281Z,100875.66
2022-11-19T02:04:03.832Z,100876.56
2022-11-19T02:06:09.550Z,100872.25
2022-11-19T02:08:38.141Z,100884.53
2022-11-19T02:10:56.405Z,100911.72
2022-11-19T02:13:09.270Z,100904.03
2022-11-19T02:15:23.693Z,100913.06
2022-11-19T02:18:02.684Z,100921.06
2022-11-19T02:20:39.944Z,100914.28
2022-11-19T02:23:10.670Z,100906.53
2022-11-19T02:25:29.749Z,100904.91
2022-11-19T02:28:12.421Z,100908.44
2022-11-19T02:30:19.759Z,100908.44
2022-11-19T02:32:32.317Z,100902.34
2022-11-19T02:34:43.681Z,100911.13
2022-11-19T02:36:56.827Z,100905.94
2022-11-19T02:39:08.107Z,100895.53
2022-11-19T02:41:37.953Z,100893.03
2022-11-19T02:43:43.790Z,100909.78
2022-11-19T02:45:52.714Z,100903.75
2022-11-19T02:48:01.975Z,100905.66
2022-11-19T02:50:11.393Z,100916.25
2022-11-19T02:52:19.557Z,100904.09
2022-11-19T02:54:24.257Z,100891.09
2022-11-19T02:56:51.631Z,100898.09
2022-11-19T02:59:13.783Z,100897.31
2022-11-19T03:01:38.696Z,100896.56
2022-11-19T03:04:00.841Z,100904.56
2022-11-19T03:06:09.118Z,100893.44
2022-11-19T03:08:13.585Z,100886.53
2022-11-19T03:10:22.105Z,100890.13
2022-11-19T03:12:37.496Z,100881.44
2022-11-19T03:15:08.775Z,100881.44
2022-11-19T03:17:21.468Z,100875.41
2022-11-19T03:19:36.651Z,100890.31
2022-11-19T03:21:46.031Z,100889.44
2022-11-19T03:23:54.922Z,100893.84
2022-11-19T03:26:03.188Z,100887.72
2022-11-19T03:28:14.450Z,100882.50
2022-11-19T03:30:20.603Z,100889.56
2022-11-19T03:32:32.824Z,100893.09
2022-11-19T03:34:40.002Z,100887.00
2022-11-19T03:36:46.503Z,100894.88
2022-11-19T03:38:57.940Z,100903.59
2022-11-19T03:41:04.405Z,100906.22
2022-11-19T03:43:11.574Z,100910.50
2022-11-19T03:45:21.511Z,100911.31
2022-11-19T03:47:31.245Z,100912.13
2022-11-19T03:49:39.497Z,100913.03
2022-11-19T03:51:48.604Z,100906.13
2022-11-19T03:53:52.753Z,100914.97
2022-11-19T03:56:01.868Z,100917.66
2022-11-19T03:58:07.912Z,100916.88
2022-11-19T04:00:13.338Z,100916.16
2022-11-19T04:02:17.919Z,100925.00
2022-11-19T04:04:39.201Z,100923.38
2022-11-19T04:06:43.452Z,100933.94
2022-11-19T04:08:47.464Z,100933.09
2022-11-19T04:10:51.713Z,100932.25
2022-11-19T04:12:55.953Z,100921.75
2022-11-19T04:15:00.270Z,100921.81
2022-11-19T04:17:04.756Z,100922.66
2022-11-19T04:19:08.794Z,100922.72
2022-11-19T04:21:14.045Z,100923.66
2022-11-19T04:23:17.752Z,100922.84
2022-11-19T04:25:21.498Z,100931.63
2022-11-19T04:27:27.065Z,100935.19
2022-11-19T04:29:30.749Z,100943.88
2022-11-19T04:31:34.812Z,100944.88
2022-11-19T04:33:38.728Z,100944.94
2022-11-19T04:35:45.917Z,100940.59
2022-11-19T04:37:51.085Z,100937.19
2022-11-19T04:39:54.877Z,100939.78
2022-11-19T04:41:58.534Z,100929.44
2022-11-19T04:44:02.751Z,100934.72
2022-11-19T04:46:06.852Z,100933.84
2022-11-19T04:48:10.337Z,100928.59
2022-11-19T04:50:14.573Z,100931.22
2022-11-19T04:52:18.385Z,100935.59
2022-11-19T04:54:23.558Z,100930.38
2022-11-19T04:56:27.061Z,100933.00
2022-11-19T04:58:30.645Z,100927.81
2022-11-19T05:00:34.319Z,100935.72
2022-11-19T05:02:37.846Z,100941.00
2022-11-19T05:04:41.644Z,100935.91
2022-11-19T05:06:45.487Z,100937.72
2022-11-19T05:08:49.147Z,100943.88
2022-11-19T05:10:54.230Z,100935.25
2022-11-19T05:12:57.792Z,100933.53
2022-11-19T05:15:01.368Z,100943.97
2022-11-19T05:17:05.014Z,100941.41
2022-11-19T05:19:08.986Z,100944.06
2022-11-19T05:21:12.554Z,100941.50
2022-11-19T05:23:16.342Z,100938.06
2022-11-19T05:25:19.911Z,100941.56
2022-11-19T05:27:25.908Z,100933.78
2022-11-19T05:29:29.407Z,100940.81
2022-11-19T05:31:33.176Z,100943.50
2022-11-19T05:33:36.704Z,100940.88
2022-11-19T05:35:40.303Z,100947.00
2022-11-19T05:37:43.786Z,100946.13
2022-11-19T05:39:47.477Z,100951.34
2022-11-19T05:41:51.541Z,100949.63
2022-11-19T05:43:57.913Z,100949.66
2022-11-19T05:46:03.033Z,100958.50
2022-11-19T05:48:08.434Z,100960.28
2022-11-19T05:50:12.707Z,100959.47
2022-11-19T05:52:16.752Z,100955.13
2022-11-19T05:54:21.318Z,100955.13
2022-11-19T05:56:26.143Z,100957.75
2022-11-19T05:58:30.673Z,100956.03
2022-11-19T06:00:36.374Z,100958.75
2022-11-19T06:02:40.639Z,100952.69
2022-11-19T06:04:44.957Z,100951.00
2022-11-19T06:06:49.330Z,100947.44
2022-11-19T06:08:53.745Z,100944.00
2022-11-19T06:10:58.018Z,100946.66
2022-11-19T06:13:02.208Z,100939.75
2022-11-19T06:15:07.209Z,100927.63
2022-11-19T06:17:12.917Z,100928.59
2022-11-19T06:19:17.533Z,100929.59
2022-11-19T06:21:22.160Z,100929.69
2022-11-19T06:23:26.384Z,100928.00
2022-11-19T06:25:30.751Z,100931.47
2022-11-19T06:27:35.436Z,100934.13
2022-11-19T06:29:39.633Z,100925.47
2022-11-19T06:31:44.273Z,100935.00
2022-11-19T06:33:50.002Z,100928.88
2022-11-19T06:35:54.455Z,100935.00
2022-11-19T06:37:58.754Z,100931.47
2022-11-19T06:40:03.035Z,100938.34
2022-11-19T06:42:24.769Z,100932.25
2022-11-19T06:44:28.946Z,100938.34
2022-11-19T06:46:33.643Z,100927.84
2022-11-19T06:48:38.313Z,100930.47
2022-11-19T06:50:43.451Z,100917.41
2022-11-19T06:52:47.298Z,100913.94
2022-11-19T06:54:51.156Z,100913.09
2022-11-19T06:56:55.189Z,100911.44
2022-11-19T06:58:59.319Z,100915.78
2022-11-19T07:01:03.512Z,100911.47
2022-11-19T07:03:07.930Z,100910.72
2022-11-19T07:05:11.722Z,100912.66
2022-11-19T07:07:17.022Z,100913.69
2022-11-19T07:09:21.443Z,100913.81
2022-11-19T07:11:28.274Z,100912.16
2022-11-19T07:13:45.982Z,100919.97
2022-11-19T07:15:49.887Z,100918.28
2022-11-19T07:17:54.922Z,100918.34
2022-11-19T07:19:58.606Z,100920.13
2022-11-19T07:22:02.225Z,100918.38
2022-11-19T07:24:10.314Z,100922.78
2022-11-19T07:26:14.367Z,100917.59
2022-11-19T07:28:18.259Z,100914.09
2022-11-19T07:30:22.557Z,100914.06
2022-11-19T07:32:26.660Z,100918.38
2022-11-19T07:34:30.939Z,100920.13
2022-11-19T07:36:34.710Z,100918.38
2022-11-19T07:38:38.657Z,100915.88
2022-11-19T07:40:43.525Z,100916.66
2022-11-19T07:42:53.170Z,100912.31
2022-11-19T07:44:56.831Z,100908.03
2022-11-19T07:47:00.775Z,100906.31
2022-11-19T07:49:04.730Z,100904.59
2022-11-19T07:51:08.377Z,100903.75
2022-11-19T07:53:12.123Z,100904.63
2022-11-19T07:55:16.157Z,100901.97
2022-11-19T07:57:25.887Z,100891.50
2022-11-19T07:59:33.471Z,100887.13
2022-11-19T08:01:37.324Z,100889.78
2022-11-19T08:03:42.839Z,100884.59
2022-11-19T08:05:46.554Z,100879.38
2022-11-19T08:07:50.482Z,100880.19
2022-11-19T08:09:54.750Z,100884.53
2022-11-19T08:11:59.071Z,100882.78
2022-11-19T08:14:04.551Z,100888.03
2022-11-19T08:16:10.763Z,100885.41
2022-11-19T08:18:13.760Z,100887.03
2022-11-19T08:20:18.681Z,100881.72
2022-11-19T08:22:22.922Z,100878.13
2022-11-19T08:24:26.947Z,100878.06
2022-11-19T08:26:30.841Z,100872.72
2022-11-19T08:28:35.494Z,100872.56
2022-11-19T08:30:42.440Z,100868.09
2022-11-19T08:32:46.657Z,100868.91
2022-11-19T08:34:51.241Z,100879.22
2022-11-19T08:36:55.380Z,100874.88
2022-11-19T08:39:00.798Z,100869.66
2022-11-19T08:41:21.767Z,100867.97
2022-11-19T08:43:25.834Z,100872.25
2022-11-19T08:45:32.955Z,100865.19
2022-11-19T08:47:38.447Z,100871.19
2022-11-19T08:49:42.660Z,100872.31
2022-11-19T08:51:46.960Z,100869.75
2022-11-19T08:53:53.879Z,100873.97
2022-11-19T08:55:57.874Z,100874.56
2022-11-19T08:58:03.043Z,100874.28
2022-11-19T09:00:08.096Z,100873.31
2022-11-19T09:02:12.770Z,100875.81
2022-11-19T09:04:19.112Z,100884.28
2022-11-19T09:06:24.968Z,100876.22
2022-11-19T09:08:29.456Z,100872.63
2022-11-19T09:10:33.324Z,100868.16
2022-11-19T09:12:37.216Z,100868.91
2022-11-19T09:14:41.495Z,100869.63
2022-11-19T09:16:45.679Z,100864.22
2022-11-19T09:18:50.054Z,100871.97
2022-11-19T09:20:57.436Z,100865.75
2022-11-19T09:23:02.156Z,100867.41
2022-11-19T09:25:06.866Z,100867.31
2022-11-19T09:27:11.127Z,100855.91
2022-11-19T09:29:15.093Z,100856.72
2022-11-19T09:31:21.832Z,100845.63
2022-11-19T09:33:26.089Z,100847.31
2022-11-19T09:35:30.330Z,100841.81
2022-11-19T09:37:36.329Z,100838.69
2022-11-19T09:39:40.798Z,100836.66
2022-11-19T09:41:49.857Z,100836.25
2022-11-19T09:44:02.697Z,100828.84
2022-11-19T09:46:19.200Z,100821.22
2022-11-19T09:48:33.684Z,100818.91
2022-11-19T09:50:53.656Z,100813.97
2022-11-19T09:53:04.096Z,100820.47
2022-11-19T09:55:19.786Z,100808.84
2022-11-19T09:57:31.879Z,100796.84
2022-11-19T09:59:40.413Z,100791.88
2022-11-19T10:01:44.968Z,100787.72
2022-11-19T10:03:51.581Z,100779.28
2022-11-19T10:06:14.402Z,100786.66
2022-11-19T10:08:36.256Z,100785.31
2022-11-19T10:10:44.208Z,100782.78
2022-11-19T10:13:12.220Z,100785.31
2022-11-19T10:15:25.957Z,100788.16
2022-11-19T10:17:42.446Z,100783.47
2022-11-19T10:19:58.156Z,100785.91
2022-11-19T10:22:09.097Z,100787.47
2022-11-19T10:24:18.572Z,100783.78
2022-11-19T10:26:28.716Z,100780.97
2022-11-19T10:28:38.925Z,100781.66
2022-11-19T10:30:49.700Z,100784.13
2022-11-19T10:32:59.878Z,100782.38
2022-11-19T10:35:10.915Z,100784.13
2022-11-19T10:37:18.938Z,100779.03
2022-11-19T10:39:30.816Z,100775.63
2022-11-19T10:41:40.055Z,100776.53
2022-11-19T10:43:50.551Z,100774.06
2022-11-19T10:45:57.592Z,100777.75
2022-11-19T10:48:09.664Z,100761.91
2022-11-19T10:50:20.486Z,100757.31
2022-11-19T10:52:31.968Z,100748.13
2022-11-19T10:54:40.362Z,100744.84
2022-11-19T10:56:45.502Z,100746.34
2022-11-19T10:58:54.699Z,100725.19
2022-11-19T11:01:01.597Z,100732.00
2022-11-19T11:03:08.462Z,100728.06
2022-11-19T11:05:15.956Z,100715.34
2022-11-19T11:07:21.094Z,100713.28
2022-11-19T11:09:33.648Z,100710.28
2022-11-19T11:11:58.228Z,100705.00
2022-11-19T11:14:20.261Z,100686.59
2022-11-19T11:16:28.342Z,100685.44
2022-11-19T11:18:34.300Z,100669.41
2022-11-19T11:20:47.083Z,100666.63
2022-11-19T11:23:05.669Z,100659.31
2022-11-19T11:25:22.606Z,100652.13
2022-11-19T11:27:33.751Z,100652.84
2022-11-19T11:29:37.774Z,100650.13
2022-11-19T11:31:44.589Z,100644.88
2022-11-19T11:33:57.823Z,100637.81
2022-11-19T11:36:07.362Z,100631.63
2022-11-19T11:38:15.655Z,100629.75
2022-11-19T11:40:22.916Z,100626.19
2022-11-19T11:42:31.650Z,100626.19
2022-11-19T11:44:40.082Z,100626.19
2022-11-19T11:46:48.574Z,100634.88
2022-11-19T11:48:53.112Z,100626.00
2022-11-19T11:50:58.044Z,100624.16
2022-11-19T11:53:10.656Z,100625.00
2022-11-19T11:55:17.349Z,100620.44
2022-11-19T11:57:23.926Z,100620.34
2022-11-19T11:59:32.137Z,100619.34
2022-11-19T12:01:36.595Z,100613.84
2022-11-19T12:03:55.859Z,100602.97
2022-11-19T12:06:08.671Z,100605.28
2022-11-19T12:08:27.192Z,100610.31
2022-11-19T12:10:44.303Z,100600.44
2022-11-19T12:13:03.565Z,100606.41
2022-11-19T12:15:25.939Z,100601.84
2022-11-19T12:17:46.156Z,100604.22
2022-11-19T12:20:12.973Z,100603.97
2022-11-19T12:22:30.804Z,100594.09
2022-11-19T12:24:49.486Z,100584.16
2022-11-19T12:27:04.080Z,100589.09
2022-11-19T12:29:23.243Z,100576.69
2022-11-19T12:31:44.727Z,100570.41
2022-11-19T12:34:10.525Z,100574.66
2022-11-19T12:36:31.594Z,100573.78
2022-11-19T12:38:50.796Z,100572.06
2022-11-19T12:41:08.053Z,100574.81
2022-11-19T12:43:28.284Z,100577.53
2022-11-19T12:45:43.935Z,100565.38
2022-11-19T12:48:14.488Z,100560.09
2022-11-19T12:50:30.630Z,100557.44
2022-11-19T12:52:58.595Z,100550.50
2022-11-19T12:55:14.232Z,100543.53
2022-11-19T12:57:34.492Z,100536.53
2022-11-19T12:59:56.730Z,100536.53
2022-11-19T13:02:04.329Z,100531.09
2022-11-19T13:04:17.565Z,100534.69
2022-11-19T13:06:27.195Z,100539.00
2022-11-19T13:08:39.154Z,100531.09
2022-11-19T13:10:49.822Z,100524.88
2022-11-19T13:12:57.825Z,100527.44
2022-11-19T13:15:06.587Z,100512.31
2022-11-19T13:17:21.642Z,100511.38
2022-11-19T13:19:33.185Z,100504.22
2022-11-19T13:21:46.796Z,100497.09
2022-11-19T13:23:53.242Z,100496.91
2022-11-19T13:26:05.105Z,100494.16
2022-11-19T13:28:19.652Z,100492.31
2022-11-19T13:30:27.197Z,100494.84
2022-11-19T13:32:39.860Z,100491.19
2022-11-19T13:35:03.560Z,100497.22
2022-11-19T13:37:17.183Z,100487.50
2022-11-19T13:39:24.249Z,100484.81
2022-11-19T13:41:33.158Z,100496.09
2022-11-19T13:43:54.236Z,100481.03
2022-11-19T13:46:07.319Z,100477.53
2022-11-19T13:48:24.922Z,100472.25
2022-11-19T13:50:36.743Z,100471.34
2022-11-19T13:52:47.232Z,100470.41
2022-11-19T13:54:52.020Z,100471.16
2022-11-19T13:56:58.784Z,100465.88
2022-11-19T13:59:02.755Z,100468.41
2022-11-19T14:01:34.998Z,100460.59
2022-11-19T14:03:51.789Z,100453.28
2022-11-19T14:06:29.658Z,100448.00
2022-11-19T14:08:45.929Z,100440.06
2022-11-19T14:11:07.021Z,100439.16
2022-11-19T14:13:31.283Z,100436.50
2022-11-19T14:16:13.324Z,100432.84
2022-11-19T14:18:42.157Z,100423.81
2022-11-19T14:21:04.749Z,100427.19
2022-11-19T14:23:27.756Z,100420.88
2022-11-19T14:26:05.311Z,100413.81
2022-11-19T14:28:38.878Z,100396.41
2022-11-19T14:31:04.423Z,100391.28
2022-11-19T14:33:58.660Z,100390.63
2022-11-19T14:36:11.377Z,100391.66
2022-11-19T14:38:36.945Z,100398.81
2022-11-19T14:40:43.946Z,100393.38
2022-11-19T14:43:38.725Z,100394.19
2022-11-19T14:46:02.249Z,100393.38
2022-11-19T14:48:06.273Z,100395.22
2022-11-19T14:50:11.910Z,100387.41
2022-11-19T14:52:25.775Z,100395.44
2022-11-19T14:54:34.794Z,100392.88
2022-11-19T14:56:40.401Z,100386.75
2022-11-19T14:58:53.022Z,100384.19
2022-11-19T15:01:08.312Z,100375.44
2022-11-19T15:03:18.576Z,100375.53
2022-11-19T15:05:23.955Z,100372.81
2022-11-19T15:07:37.231Z,100371.94
2022-11-19T15:10:12.171Z,100368.28
2022-11-19T15:12:15.925Z,100370.81
2022-11-19T15:15:02.802Z,100357.63
2022-11-19T15:17:09.004Z,100355.09
2022-11-19T15:19:36.394Z,100355.19
2022-11-19T15:22:06.903Z,100350.75
2022-11-19T15:24:23.493Z,100356.03
2022-11-19T15:26:38.276Z,100349.81
2022-11-19T15:28:56.577Z,100349.06
2022-11-19T15:31:17.839Z,100339.47
2022-11-19T15:33:53.799Z,100339.66
2022-11-19T15:36:30.488Z,100348.69
2022-11-19T15:38:42.036Z,100345.28
2022-11-19T15:40:47.894Z,100343.56
2022-11-19T15:43:00.166Z,100349.91
2022-11-19T15:45:09.508Z,100341.22
2022-11-19T15:47:16.219Z,100332.38
2022-11-19T15:49:26.337Z,100338.50
2022-11-19T15:51:30.919Z,100326.25
2022-11-19T15:53:35.010Z,100324.56
2022-11-19T15:55:39.531Z,100330.88
2022-11-19T15:57:55.014Z,100322.03
2022-11-19T16:00:04.988Z,100318.63
2022-11-19T16:02:20.458Z,100305.53
2022-11-19T16:04:24.560Z,100308.16
2022-11-19T16:06:30.484Z,100299.41
2022-11-19T16:08:34.980Z,100289.91
2022-11-19T16:10:43.142Z,100277.66
2022-11-19T16:13:13.779Z,100285.66
2022-11-19T16:15:41.046Z,100268.22
2022-11-19T16:17:48.972Z,100268.44
2022-11-19T16:20:06.660Z,100259.66
2022-11-19T16:22:11.876Z,100258.72
2022-11-19T16:24:36.673Z,100254.28
2022-11-19T16:26:41.879Z,100263.16
2022-11-19T16:28:45.942Z,100252.78
2022-11-19T16:30:56.038Z,100239.69
2022-11-19T16:33:01.845Z,100237.06
2022-11-19T16:35:13.051Z,100232.66
2022-11-19T16:37:18.982Z,100228.41
2022-11-19T16:39:27.784Z,100227.53
2022-11-19T16:41:49.635Z,100232.91
2022-11-19T16:43:54.358Z,100217.19
2022-11-19T16:46:00.761Z,100210.41
2022-11-19T16:48:04.911Z,100225.38
2022-11-19T16:50:27.220Z,100208.16
2022-11-19T16:52:41.646Z,100200.41
2022-11-19T16:54:48.740Z,100194.31
2022-11-19T16:56:52.505Z,100202.41
2022-11-19T16:58:59.889Z,100196.28
2022-11-19T17:01:04.951Z,100205.09
2022-11-19T17:03:19.865Z,100198.25
2022-11-19T17:05:26.500Z,100204.38
2022-11-19T17:07:31.279Z,100207.09
2022-11-19T17:09:44.634Z,100200.13
2022-11-19T17:12:10.096Z,100217.84
2022-11-19T17:14:22.322Z,100202.09
2022-11-19T17:16:27.798Z,100213.50
2022-11-19T17:18:34.924Z,100206.44
2022-11-19T17:20:53.370Z,100202.84
2022-11-19T17:23:03.172Z,100214.22
2022-11-19T17:25:15.811Z,100207.28
2022-11-19T17:27:28.315Z,100208.13
2022-11-19T17:29:32.040Z,100201.06
2022-11-19T17:31:37.444Z,100206.44
2022-11-19T17:33:51.580Z,100211.69
2022-11-19T17:35:55.683Z,100206.22
2022-11-19T17:38:01.052Z,100216.03
2022-11-19T17:40:05.039Z,100205.50
2022-11-19T17:42:28.740Z,100208.97
2022-11-19T17:44:34.936Z,100199.44
2022-11-19T17:46:40.094Z,100203.78
2022-11-19T17:48:45.725Z,100208.97
2022-11-19T17:50:49.693Z,100197.59
2022-11-19T17:52:53.370Z,100183.59
2022-11-19T17:54:58.775Z,100195.06
2022-11-19T17:57:02.557Z,100190.72
2022-11-19T17:59:06.535Z,100196.81
2022-11-19T18:01:11.700Z,100189.88
2022-11-19T18:03:17.930Z,100178.13
2022-11-19T18:05:24.729Z,100181.41
2022-11-19T18:07:41.197Z,100187.53
2022-11-19T18:09:45.793Z,100177.81
2022-11-19T18:11:51.236Z,100176.13
2022-11-19T18:13:57.521Z,100176.13
2022-11-19T18:16:02.722Z,100171.63
2022-11-19T18:18:07.071Z,100187.34
2022-11-19T18:20:14.266Z,100168.78
2022-11-19T18:25:16.282Z,100147.44
2022-11-19T18:27:28.638Z,100147.34
2022-11-19T18:30:23.506Z,100141.16
2022-11-19T18:32:27.419Z,100138.31
2022-11-19T18:34:32.823Z,100129.47
2022-11-19T18:36:52.252Z,100129.38
2022-11-19T18:38:57.034Z,100135.47
2022-11-19T18:41:00.807Z,100132.84
2022-11-19T18:43:21.564Z,100120.44
2022-11-19T18:45:25.715Z,100116.75
2022-11-19T18:47:29.905Z,100129.66
2022-11-19T18:49:45.350Z,100123.44
2022-11-19T18:51:51.119Z,100117.97
2022-11-19T18:53:55.504Z,100117.97
2022-11-19T18:56:00.159Z,100120.50
2022-11-19T18:58:04.603Z,100113.34
2022-11-19T19:00:10.670Z,100103.66
2022-11-19T19:02:14.656Z,100102.72
2022-11-19T19:04:19.141Z,100101.75
2022-11-19T19:06:25.200Z,100100.53
2022-11-19T19:08:33.722Z,100102.09
2022-11-19T19:10:43.079Z,100103.81
2022-11-19T19:12:46.558Z,100104.66
2022-11-19T19:14:55.213Z,100097.81
2022-11-19T19:17:14.959Z,100096.09
2022-11-19T19:19:22.221Z,100090.81
2022-11-19T19:21:26.789Z,100090.06
2022-11-19T19:23:34.028Z,100078.56
2022-11-19T19:25:44.627Z,100074.81
2022-11-19T19:30:22.450Z,100068.28
2022-11-19T19:32:28.115Z,100070.09
2022-11-19T19:34:39.945Z,100056.06
2022-11-19T19:37:09.035Z,100071.03
2022-11-19T19:39:18.345Z,100064.72
2022-11-19T19:41:25.662Z,100066.31
2022-11-19T19:43:32.978Z,100067.13
2022-11-19T19:45:58.310Z,100052.91
2022-11-19T19:48:05.796Z,100044.91
2022-11-19T19:50:11.069Z,100052.69
2022-11-19T19:52:16.885Z,100057.25
2022-11-19T20:00:24.193Z,100060.47
2022-11-19T20:02:29.555Z,100053.50
2022-11-19T20:04:41.244Z,100043.81
2022-11-19T20:06:48.584Z,100041.75
2022-11-19T20:12:12.893Z,100052.19
2022-11-19T20:22:54.004Z,100057.25
2022-11-19T20:40:09.737Z,100049.28
2022-11-19T20:42:31.142Z,100058.88
2022-11-19T20:44:37.016Z,100055.31
2022-11-19T20:46:41.418Z,100042.94
2022-11-19T20:48:46.261Z,100041.16
2022-11-19T20:50:50.747Z,100034.19
2022-11-19T20:52:54.856Z,100035.88
2022-11-19T20:55:02.346Z,100038.63
2022-11-19T20:57:10.803Z,100042.88
2022-11-19T20:59:15.302Z,100042.88
2022-11-19T21:01:21.009Z,100033.97
2022-11-19T21:03:25.483Z,100039.25
2022-11-19T21:05:29.964Z,100037.59
2022-11-19T21:07:34.890Z,100036.72
2022-11-19T21:09:41.399Z,100042.88
2022-11-19T21:11:46.429Z,100038.44
2022-11-19T21:13:50.969Z,100032.38
2022-11-19T21:15:58.571Z,100033.34
2022-11-19T21:18:05.497Z,100034.41
2022-11-19T21:20:16.453Z,100036.38
2022-11-19T21:22:20.912Z,100039.34
2022-11-19T21:24:25.673Z,100028.97
2022-11-19T21:26:31.306Z,100029.19
2022-11-19T21:28:37.239Z,100033.91
2022-11-19T21:30:42.463Z,100038.53
2022-11-19T21:32:49.674Z,100034.31
2022-11-19T21:34:56.240Z,100036.94
2022-11-19T21:37:05.627Z,100036.84
2022-11-19T21:39:10.913Z,100035.16
2022-11-19T21:41:15.900Z,100031.56
2022-11-19T21:43:20.549Z,100032.50
2022-11-19T21:45:25.754Z,100035.16
2022-11-19T21:55:06.287Z,100046.16
2022-11-19T21:57:12.108Z,100042.56
2022-11-19T21:59:16.777Z,100044.28
2022-11-19T22:01:28.277Z,100051.97
2022-11-19T22:03:41.921Z,100051.88
2022-11-19T22:06:19.219Z,100041.97
2022-11-19T22:08:24.881Z,100047.03
2022-11-19T22:10:41.459Z,100045.91
2022-11-19T22:12:53.012Z,100038.63
2022-11-19T22:14:57.967Z,100038.53
2022-11-19T22:20:41.962Z,100039.09
2022-11-19T22:23:11.437Z,100035.47
2022-11-19T22:40:09.557Z,100019.28
2022-11-19T22:42:15.292Z,100024.66
2022-11-19T22:44:20.697Z,100025.69
2022-11-19T22:46:28.749Z,100019.66
2022-11-19T22:48:37.167Z,100024.09
2022-11-19T22:53:48.269Z,100016.41
2022-11-19T22:56:05.262Z,100018.06
2022-11-19T22:58:24.715Z,100018.06
2022-11-19T23:00:46.792Z,100023.34
2022-11-19T23:03:16.785Z,100016.41
2022-11-19T23:05:35.899Z,100019.03
2022-11-19T23:07:41.809Z,100015.66
2022-11-19T23:09:50.214Z,100017.56
2022-11-19T23:17:06.516Z,100013.94
2022-11-19T23:19:38.960Z,100020.91
2022-11-19T23:21:43.513Z,100017.44
2022-11-19T23:23:49.129Z,100016.69
2022-11-19T23:29:32.389Z,100010.59
2022-11-19T23:30:59.224Z,100012.38
2022-11-19T23:31:38.918Z,100019.31
2022-11-19T23:36:43.461Z,100015.75
2022-11-19T23:56:43.474Z,100005.25
2022-11-19T23:59:27.604Z,100005.56
